Time;durP1;ratioP1;P1;durP2;ratioP2;P2;SDS_P1;SDS_P2;PMS_P1;PMS_P2;Temp;Humidity;BMP_temperature;BMP_pressure;BME280_temperature;BME280_humidity;BME280_pressure;Samples;Min_cycle;Max_cycle;Signal;HPM_P1;HPM_P2
2021/05/04 00:02:35;;;;;;;8.27;2.17;;;;;10.40;99741.00;;;;10450238;28;20196;-78
2021/05/04 00:07:36;;;;;;;4.13;1.90;;;;;10.20;99713.00;;;;10465839;28;20214;-78
2021/05/04 00:12:38;;;;;;;4.63;2.17;;;;;10.00;99715.00;;;;10466365;28;20202;-77
2021/05/04 00:17:39;;;;;;;6.40;2.17;;;;;9.80;99737.00;;;;10464401;28;20197;-77
2021/05/04 00:22:40;;;;;;;7.33;2.80;;;;;9.50;99708.00;;;;10463643;28;20194;-77
2021/05/04 00:27:42;;;;;;;6.20;2.90;;;;;9.30;99700.00;;;;10479449;28;20255;-77
2021/05/04 00:32:43;;;;;;;5.73;2.77;;;;;9.20;99708.00;;;;10479289;28;20212;-77
2021/05/04 00:37:44;;;;;;;4.80;2.93;;;;;9.10;99706.00;;;;10429080;28;20190;-76
2021/05/04 00:42:46;;;;;;;3.90;2.90;;;;;9.00;99706.00;;;;10467959;28;20189;-76
2021/05/04 00:48:00;;;;;;;6.07;3.07;;;;;8.80;99704.00;;;;10470874;28;20201;-76
2021/05/04 00:53:02;;;;;;;5.33;3.10;;;;;8.70;99671.00;;;;10494275;28;20572;-76
2021/05/04 00:58:04;;;;;;;6.93;3.53;;;;;8.60;99667.00;;;;10494944;28;20258;-76
2021/05/04 01:03:07;;;;;;;3.20;2.43;;;;;8.50;99646.00;;;;10527539;28;20185;-75
2021/05/04 01:08:09;;;;;;;6.03;3.50;;;;;8.40;99649.00;;;;10510110;28;20266;-75
2021/05/04 01:13:10;;;;;;;6.77;4.07;;;;;8.30;99633.00;;;;10544784;28;20213;-74
2021/05/04 01:18:11;;;;;;;4.87;3.47;;;;;8.20;99619.00;;;;10526832;28;20663;-75
2021/05/04 01:23:13;;;;;;;3.93;3.27;;;;;8.20;99621.00;;;;10509402;28;20185;-74
2021/05/04 01:28:25;;;;;;;4.70;3.07;;;;;8.20;99605.00;;;;10485015;28;20548;-74
2021/05/04 01:33:26;;;;;;;3.20;2.90;;;;;8.30;99599.00;;;;10524251;28;20219;-75
2021/05/04 01:38:27;;;;;;;3.80;2.90;;;;;8.30;99590.00;;;;10492124;28;20683;-75
2021/05/04 01:43:29;;;;;;;4.37;2.27;;;;;8.30;99562.00;;;;10526199;28;20282;-75
2021/05/04 01:48:30;;;;;;;9.10;2.33;;;;;8.20;99548.00;;;;10524984;28;20193;-75
2021/05/04 01:53:32;;;;;;;5.13;2.27;;;;;8.20;99560.00;;;;10491145;28;20265;-75
2021/05/04 01:58:33;;;;;;;5.13;2.67;;;;;8.20;99551.00;;;;10525024;28;20250;-75
2021/05/04 02:03:34;;;;;;;3.37;2.73;;;;;8.30;99554.00;;;;10507929;28;20216;-74
2021/05/04 02:08:36;;;;;;;2.87;2.60;;;;;8.40;99544.00;;;;10524819;28;20246;-75
2021/05/04 02:13:37;;;;;;;2.80;1.97;;;;;8.40;99518.00;;;;10525038;28;20273;-75
2021/05/04 02:18:38;;;;;;;3.40;1.87;;;;;8.60;99510.00;;;;10524080;28;20740;-75
2021/05/04 02:23:47;;;;;;;2.80;2.07;;;;;8.60;99500.00;;;;10492626;28;20730;-75
2021/05/04 02:28:49;;;;;;;4.47;2.47;;;;;8.70;99500.00;;;;10523530;28;20717;-75
2021/05/04 02:33:50;;;;;;;3.67;2.30;;;;;8.80;99504.00;;;;10507339;28;20267;-75
2021/05/04 02:38:51;;;;;;;10.13;4.13;;;;;8.80;99505.00;;;;10507264;28;20202;-75
2021/05/04 02:43:52;;;;;;;3.40;1.90;;;;;8.90;99474.00;;;;10489857;28;20731;-75
2021/05/04 02:48:54;;;;;;;3.67;1.80;;;;;8.80;99484.00;;;;10522845;28;20198;-75
2021/05/04 02:53:55;;;;;;;3.93;1.90;;;;;8.80;99461.00;;;;10540433;28;20204;-75
2021/05/04 02:58:57;;;;;;;6.03;2.07;;;;;8.90;99440.00;;;;10540350;28;20192;-75
2021/05/04 03:03:58;;;;;;;3.70;1.90;;;;;9.00;99455.00;;;;10521715;28;20184;-75
2021/05/04 03:08:59;;;;;;;5.10;2.17;;;;;9.00;99434.00;;;;10506023;28;20217;-75
2021/05/04 03:14:01;;;;;;;3.73;2.10;;;;;9.00;99429.00;;;;10505477;28;20589;-75
2021/05/04 03:19:03;;;;;;;2.47;2.10;;;;;9.00;99410.00;;;;10505832;28;20193;-74
2021/05/04 03:24:04;;;;;;;2.90;1.87;;;;;9.20;99408.00;;;;10505136;28;20196;-75
2021/05/04 03:29:06;;;;;;;2.60;1.97;;;;;9.30;99418.00;;;;10504899;28;20189;-76
2021/05/04 03:34:07;;;;;;;5.63;1.47;;;;;9.30;99395.00;;;;10505532;28;20219;-76
2021/05/04 03:39:09;;;;;;;1.93;1.63;;;;;9.40;99397.00;;;;10488043;28;20188;-76
2021/05/04 03:44:10;;;;;;;2.57;1.70;;;;;9.40;99390.00;;;;10504548;28;21107;-75
2021/05/04 03:49:13;;;;;;;2.13;1.37;;;;;9.50;99397.00;;;;10504408;28;20197;-75
2021/05/04 03:54:14;;;;;;;3.87;1.53;;;;;9.50;99397.00;;;;10487570;28;20657;-75
2021/05/04 03:59:16;;;;;;;2.80;1.40;;;;;9.50;99390.00;;;;10471297;28;20204;-75
2021/05/04 04:04:18;;;;;;;1.60;1.30;;;;;9.50;99380.00;;;;10504191;28;20196;-75
2021/05/04 04:09:19;;;;;;;6.77;1.63;;;;;9.60;99380.00;;;;10520872;28;20238;-75
2021/05/04 04:14:21;;;;;;;3.43;1.57;;;;;9.60;99358.00;;;;10489607;28;20223;-75
2021/05/04 04:19:23;;;;;;;2.70;1.30;;;;;9.70;99369.00;;;;10512395;28;20787;-76
2021/05/04 04:24:24;;;;;;;1.07;1.03;;;;;9.70;99364.00;;;;10511987;28;20224;-76
2021/05/04 04:29:25;;;;;;;2.97;1.10;;;;;9.80;99345.00;;;;10511748;28;20193;-76
2021/05/04 04:34:28;;;;;;;3.17;1.50;;;;;9.80;99343.00;;;;10494993;28;20745;-76
2021/05/04 04:39:29;;;;;;;2.10;1.20;;;;;10.00;99338.00;;;;10511774;28;20193;-75
2021/05/04 04:44:31;;;;;;;6.20;1.30;;;;;10.20;99359.00;;;;10527970;28;20197;-75
2021/05/04 04:49:33;;;;;;;6.93;1.30;;;;;10.30;99362.00;;;;10527581;28;20197;-75
2021/05/04 04:54:35;;;;;;;4.93;1.40;;;;;10.30;99336.00;;;;10511228;28;20247;-76
2021/05/04 04:59:36;;;;;;;3.03;1.70;;;;;10.50;99354.00;;;;10544985;28;20197;-75
2021/05/04 05:04:38;;;;;;;3.27;1.30;;;;;10.40;99344.00;;;;10520309;28;20204;-76
2021/05/04 05:09:39;;;;;;;6.07;1.77;;;;;10.40;99364.00;;;;10493647;28;20201;-75
2021/05/04 05:14:41;;;;;;;1.67;1.33;;;;;10.50;99379.00;;;;10509959;28;20220;-76
2021/05/04 05:19:43;;;;;;;3.00;1.13;;;;;10.40;99374.00;;;;10493556;28;20204;-76
2021/05/04 05:24:44;;;;;;;2.87;1.10;;;;;10.20;99375.00;;;;10492986;28;20200;-76
2021/05/04 05:29:45;;;;;;;3.23;1.73;;;;;10.10;99359.00;;;;10509271;28;20255;-76
2021/05/04 05:34:47;;;;;;;4.83;1.67;;;;;10.40;99375.00;;;;10526486;28;20213;-75
2021/05/04 05:39:48;;;;;;;4.97;1.47;;;;;11.00;99365.00;;;;10509702;28;20193;-76
2021/05/04 05:44:49;;;;;;;5.10;1.20;;;;;11.20;99355.00;;;;10492175;28;20197;-76
2021/05/04 05:49:51;;;;;;;5.80;1.57;;;;;11.30;99355.00;;;;10508548;28;20659;-76
2021/05/04 05:54:53;;;;;;;5.77;1.93;;;;;11.20;99354.00;;;;10526126;28;20217;-76
2021/05/04 05:59:54;;;;;;;6.53;1.80;;;;;11.20;99348.00;;;;10508769;28;20189;-75
2021/05/04 06:04:55;;;;;;;3.23;1.23;;;;;11.30;99355.00;;;;10508633;28;20196;-76
2021/05/04 06:09:56;;;;;;;4.73;1.53;;;;;11.30;99334.00;;;;10524873;28;20652;-76
2021/05/04 06:14:58;;;;;;;1.83;1.33;;;;;11.20;99358.00;;;;10507638;28;20205;-75
2021/05/04 06:19:59;;;;;;;7.93;1.83;;;;;11.40;99353.00;;;;10542916;28;20239;-75
2021/05/04 06:25:01;;;;;;;7.27;1.83;;;;;11.50;99342.00;;;;10490579;28;20284;-75
2021/05/04 06:30:06;;;;;;;5.83;2.23;;;;;11.30;99326.00;;;;10524260;28;20216;-75
2021/05/04 06:35:08;;;;;;;6.90;2.20;;;;;11.30;99338.00;;;;10506906;28;20262;-75
2021/05/04 06:40:11;;;;;;;10.10;2.73;;;;;11.40;99327.00;;;;10473651;28;20197;-74
2021/05/04 06:45:12;;;;;;;6.83;2.37;;;;;11.40;99327.00;;;;10489938;28;20204;-75
2021/05/04 06:50:13;;;;;;;9.77;3.13;;;;;11.80;99325.00;;;;10507213;28;20261;-75
2021/05/04 06:55:15;;;;;;;9.90;2.27;;;;;11.90;99325.00;;;;10562262;28;20205;-75
2021/05/04 07:00:17;;;;;;;15.57;3.03;;;;;11.60;99323.00;;;;10505838;28;20189;-76
2021/05/04 07:05:19;;;;;;;17.40;3.23;;;;;11.00;99320.00;;;;10506051;28;20537;-74
2021/05/04 07:10:21;;;;;;;10.60;2.27;;;;;10.70;99326.00;;;;10519436;28;20664;-74
2021/05/04 07:15:22;;;;;;;13.13;3.07;;;;;10.80;99326.00;;;;10531020;28;20206;-73
2021/05/04 07:20:32;;;;;;;9.43;2.43;;;;;11.10;99324.00;;;;10504541;28;20959;-74
2021/05/04 07:25:33;;;;;;;6.00;2.43;;;;;11.70;99326.00;;;;10521232;28;20227;-73
2021/05/04 07:30:39;;;;;;;10.20;3.03;;;;;12.70;99320.00;;;;10496170;28;20204;-74
2021/05/04 07:35:40;;;;;;;11.50;2.80;;;;;13.40;99317.00;;;;10524809;28;20225;-74
2021/05/04 07:40:42;;;;;;;9.77;2.60;;;;;14.00;99306.00;;;;10511504;28;20189;-74
2021/05/04 07:45:45;;;;;;;14.77;3.37;;;;;13.80;99308.00;;;;10501471;28;20656;-74
2021/05/04 07:50:46;;;;;;;11.60;3.07;;;;;13.60;99314.00;;;;10502547;28;20216;-74
2021/05/04 07:55:48;;;;;;;17.37;3.90;;;;;13.50;99291.00;;;;10502234;28;20212;-75
2021/05/04 08:00:49;;;;;;;16.40;3.47;;;;;13.10;99305.00;;;;10474021;28;20200;-74
2021/05/04 08:05:51;;;;;;;12.67;2.83;;;;;13.20;99294.00;;;;10503029;28;20262;-74
2021/05/04 08:10:54;;;;;;;14.07;3.37;;;;;13.10;99309.00;;;;10518613;28;20216;-75
2021/05/04 08:15:55;;;;;;;17.33;3.17;;;;;13.90;99307.00;;;;10486382;28;20232;-75
2021/05/04 08:20:57;;;;;;;12.73;2.70;;;;;14.30;99297.00;;;;10518957;28;20200;-75
2021/05/04 08:25:58;;;;;;;11.77;2.60;;;;;14.30;99309.00;;;;10523550;28;20180;-75
2021/05/04 08:31:00;;;;;;;14.70;3.40;;;;;13.90;99316.00;;;;10512767;28;20192;-75
2021/05/04 08:36:02;;;;;;;11.27;3.07;;;;;13.20;99312.00;;;;10500505;28;20687;-74
2021/05/04 08:41:07;;;;;;;9.43;2.57;;;;;13.10;99317.00;;;;10483274;28;20197;-74
2021/05/04 08:46:09;;;;;;;13.53;2.57;;;;;12.00;99350.00;;;;10484807;28;20208;-75
2021/05/04 08:51:12;;;;;;;14.00;3.63;;;;;11.70;99350.00;;;;10515033;28;20197;-76
2021/05/04 08:56:35;;;;;;;16.40;3.30;;;;;12.00;99358.00;;;;10536983;28;20303;-75
2021/05/04 09:01:38;;;;;;;11.77;3.43;;;;;13.40;99361.00;;;;10505400;28;20197;-74
2021/05/04 09:06:43;;;;;;;9.00;2.47;;;;;14.00;99368.00;;;;10527357;28;20296;-75
2021/05/04 09:22:34;;;;;;;13.87;2.83;;;;;12.80;99403.00;;;;10507882;28;20185;-75
2021/05/04 09:27:35;;;;;;;14.10;2.27;;;;;13.30;99407.00;;;;10544976;28;20188;-75
2021/05/04 09:32:45;;;;;;;8.33;2.20;;;;;14.00;99408.00;;;;10525173;28;20274;-76
2021/05/04 09:37:47;;;;;;;7.33;2.47;;;;;14.10;99395.00;;;;10541020;28;20197;-76
2021/05/04 09:43:08;;;;;;;7.57;1.93;;;;;13.60;99426.00;;;;10524412;28;20184;-76
2021/05/04 09:48:12;;;;;;;8.17;2.37;;;;;14.20;99431.00;;;;10540361;28;20188;-76
2021/05/04 09:53:16;;;;;;;12.23;3.33;;;;;14.30;99446.00;;;;10526036;28;20754;-76
2021/05/04 09:58:39;;;;;;;10.87;2.10;;;;;14.10;99447.00;;;;10506974;28;20199;-76
2021/05/04 10:03:43;;;;;;;15.13;3.27;;;;;13.30;99432.00;;;;10480095;28;20200;-76
2021/05/04 10:08:46;;;;;;;9.87;2.07;;;;;13.90;99457.00;;;;10523651;28;20209;-75
2021/05/04 10:13:57;;;;;;;6.40;1.77;;;;;14.80;99464.00;;;;10523143;28;20227;-75
2021/05/04 10:19:03;;;;;;;10.80;2.17;;;;;14.60;99476.00;;;;10489542;28;20247;-75
2021/05/04 10:24:06;;;;;;;9.13;2.13;;;;;14.40;99482.00;;;;10522288;28;20192;-76
2021/05/04 10:29:10;;;;;;;9.23;1.77;;;;;15.70;99471.00;;;;10501741;28;20189;-75
2021/05/04 10:34:24;;;;;;;6.53;1.60;;;;;15.90;99476.00;;;;10501486;28;20666;-75
2021/05/04 10:39:38;;;;;;;4.33;1.60;;;;;15.70;99505.00;;;;10518323;28;20201;-75
2021/05/04 10:44:59;;;;;;;9.03;1.90;;;;;15.20;99506.00;;;;10536581;28;20189;-76
2021/05/04 10:50:04;;;;;;;6.47;1.80;;;;;15.30;99505.00;;;;10536253;28;20203;-75
2021/05/04 10:55:05;;;;;;;7.77;2.37;;;;;15.20;99524.00;;;;10516437;28;20220;-76
2021/05/04 11:00:07;;;;;;;5.10;1.63;;;;;15.40;99518.00;;;;10482941;28;20208;-75
2021/05/04 11:05:09;;;;;;;8.43;1.97;;;;;15.50;99508.00;;;;10498213;28;20262;-75
2021/05/04 11:10:11;;;;;;;11.60;2.00;;;;;16.20;99514.00;;;;10517071;28;20652;-75
2021/05/04 11:15:19;;;;;;;9.37;2.43;;;;;17.30;99517.00;;;;10484608;28;21007;-76
2021/05/04 11:20:41;;;;;;;7.00;1.43;;;;;18.10;99534.00;;;;10484919;28;20181;-73
2021/05/04 11:25:43;;;;;;;5.47;1.60;;;;;18.20;99526.00;;;;10519142;28;20218;-74
2021/05/04 11:30:45;;;;;;;7.83;1.90;;;;;18.50;99519.00;;;;10517684;28;20224;-74
2021/05/04 11:35:46;;;;;;;6.97;1.60;;;;;18.40;99546.00;;;;10499434;28;20620;-74
2021/05/04 11:40:47;;;;;;;11.70;1.77;;;;;17.90;99536.00;;;;10499358;28;20200;-74
2021/05/04 11:45:49;;;;;;;9.57;1.70;;;;;17.40;99537.00;;;;10500140;28;20204;-73
2021/05/04 11:50:52;;;;;;;8.20;1.57;;;;;17.40;99561.00;;;;10569680;28;20212;-72
2021/05/04 11:55:55;;;;;;;12.03;1.93;;;;;17.00;99565.00;;;;10542819;28;20216;-73
2021/05/04 12:00:59;;;;;;;7.20;1.43;;;;;17.40;99569.00;;;;10543725;28;20192;-74
2021/05/04 12:06:03;;;;;;;6.60;1.87;;;;;17.40;99568.00;;;;10544330;28;20301;-74
2021/05/04 12:11:05;;;;;;;6.73;1.83;;;;;17.30;99556.00;;;;10467995;28;20204;-74
2021/05/04 12:16:15;;;;;;;11.03;1.63;;;;;16.90;99563.00;;;;10515453;28;20274;-75
2021/05/04 12:21:18;;;;;;;6.63;1.67;;;;;17.10;99572.00;;;;10516549;28;20647;-75
2021/05/04 12:26:21;;;;;;;5.90;1.40;;;;;17.50;99581.00;;;;10501993;28;20192;-76
2021/05/04 12:31:34;;;;;;;8.40;1.67;;;;;18.10;99568.00;;;;10519443;28;20246;-75
2021/05/04 12:36:53;;;;;;;6.10;1.40;;;;;18.40;99582.00;;;;10518148;28;20207;-75
2021/05/04 12:42:01;;;;;;;6.83;1.70;;;;;19.10;99569.00;;;;10536937;28;20636;-75
2021/05/04 12:47:11;;;;;;;5.22;1.50;;;;;19.40;99563.00;;;;10517321;28;20205;-75
2021/05/04 12:52:15;;;;;;;8.57;1.85;;;;;19.50;99593.00;;;;10524272;28;20246;-75
2021/05/04 12:57:18;;;;;;;9.70;1.80;;;;;18.40;99579.00;;;;10516230;28;20193;-76
2021/05/04 13:02:28;;;;;;;3.03;1.50;;;;;18.20;99582.00;;;;10508734;28;20271;-76
2021/05/04 13:50:21;;;;;;;5.78;1.73;;;;;19.90;99604.00;;;;10500471;28;20194;-77
2021/05/04 13:55:22;;;;;;;9.77;1.75;;;;;23.60;99586.00;;;;10483484;28;20244;-76
2021/05/04 14:00:42;;;;;;;7.35;1.20;;;;;24.60;99601.00;;;;10524961;28;20193;-77
2021/05/04 14:06:03;;;;;;;5.18;1.40;;;;;24.30;99590.00;;;;10523590;28;20213;-77
2021/05/04 14:26:50;;;;;;;8.80;1.92;;;;;19.50;99620.00;;;;10498041;28;20258;-76
2021/05/04 14:31:51;;;;;;;6.22;1.70;;;;;21.00;99607.00;;;;10485397;28;20644;-77
2021/05/04 14:37:43;;;;;;;6.28;1.73;;;;;22.80;99619.00;;;;10505331;28;20243;-76
2021/05/04 15:03:23;;;;;;;8.00;1.63;;;;;21.10;99557.00;;;;10481669;28;20188;-76
2021/05/04 15:08:26;;;;;;;7.93;1.63;;;;;22.60;99598.00;;;;10468234;28;20221;-76
2021/05/04 15:13:27;;;;;;;8.68;1.95;;;;;21.20;99608.00;;;;10520104;28;20209;-76
2021/05/04 15:23:49;;;;;;;8.18;1.83;;;;;20.30;99615.00;;;;10490080;28;20207;-76
2021/05/04 15:28:50;;;;;;;5.38;1.25;;;;;19.60;99620.00;;;;10518074;28;20207;-76
2021/05/04 15:33:52;;;;;;;6.50;1.48;;;;;20.50;99619.00;;;;10533022;28;20212;-76
2021/05/04 15:38:53;;;;;;;7.55;1.92;;;;;24.20;99616.00;;;;10482627;28;20713;-76
2021/05/04 15:43:55;;;;;;;5.72;1.60;;;;;20.20;99607.00;;;;10500420;28;20200;-77
2021/05/04 15:49:30;;;;;;;7.97;2.30;;;;;17.90;99611.00;;;;10528761;28;20188;-77
2021/05/04 16:10:18;;;;;;;7.73;1.93;;;;;15.40;99624.00;;;;10524022;28;20598;-77
2021/05/04 16:15:19;;;;;;;7.90;2.10;;;;;14.70;99662.00;;;;10515988;28;20215;-78
2021/05/04 16:31:03;;;;;;;2.60;0.80;;;;;9.90;99732.00;;;;10516230;28;20185;-77
2021/05/04 16:36:10;;;;;;;1.57;0.93;;;;;9.30;99713.00;;;;10516944;28;20610;-78
2021/05/04 16:41:13;;;;;;;2.40;0.87;;;;;9.20;99707.00;;;;10544447;28;20244;-78
2021/05/04 16:46:15;;;;;;;3.60;0.90;;;;;9.20;99704.00;;;;10532738;28;20656;-78
2021/05/04 16:51:21;;;;;;;1.87;0.63;;;;;9.40;99679.00;;;;10500911;28;20219;-77
2021/05/04 16:56:23;;;;;;;1.17;0.70;;;;;9.80;99692.00;;;;10517761;28;20583;-77
2021/05/04 17:01:24;;;;;;;3.20;1.10;;;;;10.00;99685.00;;;;10535875;28;20200;-77
2021/05/04 17:11:33;;;;;;;2.57;1.43;;;;;11.20;99668.00;;;;10569380;28;20216;-77
2021/05/04 17:16:35;;;;;;;5.50;1.67;;;;;11.80;99663.00;;;;10503135;28;20262;-76
2021/05/04 17:21:36;;;;;;;4.87;1.40;;;;;12.20;99659.00;;;;10521736;28;20975;-77
2021/05/04 17:26:38;;;;;;;6.87;2.10;;;;;11.60;99658.00;;;;10486906;28;20532;-76
2021/05/04 17:31:39;;;;;;;5.50;1.60;;;;;11.40;99656.00;;;;10546805;28;20227;-76
2021/05/04 17:36:41;;;;;;;4.57;1.57;;;;;11.30;99660.00;;;;10535724;28;20216;-76
2021/05/04 17:41:43;;;;;;;2.97;1.27;;;;;11.40;99711.00;;;;10489306;28;20636;-76
2021/05/04 17:46:44;;;;;;;1.20;0.93;;;;;10.50;99710.00;;;;10474654;28;20591;-76
2021/05/04 17:51:46;;;;;;;2.63;0.83;;;;;9.60;99746.00;;;;10518323;28;20246;-76
2021/05/04 17:56:48;;;;;;;1.43;0.90;;;;;9.30;99755.00;;;;10502255;28;20221;-76
2021/05/04 18:01:49;;;;;;;2.00;0.87;;;;;9.20;99753.00;;;;10534736;28;20652;-76
2021/05/04 18:06:53;;;;;;;1.30;1.07;;;;;9.00;99741.00;;;;10520865;28;20258;-77
2021/05/04 18:11:57;;;;;;;2.83;1.20;;;;;8.90;99749.00;;;;10517376;28;20197;-76
2021/05/04 18:22:19;;;;;;;3.80;1.20;;;;;8.80;99784.00;;;;10534168;28;20196;-76
2021/05/04 18:27:23;;;;;;;3.10;1.10;;;;;8.70;99808.00;;;;10534393;28;20185;-74
2021/05/04 18:32:24;;;;;;;2.63;1.30;;;;;8.30;99812.00;;;;10533152;28;20184;-76
2021/05/04 19:21:52;;;;;;;1.40;1.20;;;;;7.70;99822.00;;;;10498766;28;20666;-76
2021/05/04 19:24:52;;;;;;;5.00;1.80;;;;;7.80;99833.00;;;;10500188;28;20200;-75
2021/05/04 20:06:41;;;;;;;3.50;1.77;;;;;6.50;99833.00;;;;10498848;28;20231;-75
2021/05/04 20:11:46;;;;;;;4.70;1.80;;;;;6.50;99843.00;;;;10518459;28;20204;-75
2021/05/04 20:16:51;;;;;;;3.90;1.57;;;;;6.50;99830.00;;;;10515204;28;20270;-76
2021/05/04 20:21:53;;;;;;;5.17;1.90;;;;;6.60;99834.00;;;;10515943;28;20228;-75
2021/05/04 20:26:54;;;;;;;3.67;1.70;;;;;6.70;99830.00;;;;10498718;28;20193;-76
2021/05/04 20:32:02;;;;;;;3.20;1.77;;;;;6.80;99836.00;;;;10500206;28;20192;-76
2021/05/04 20:37:04;;;;;;;7.80;2.63;;;;;6.80;99841.00;;;;10497184;28;20212;-75
2021/05/04 20:42:05;;;;;;;5.93;2.30;;;;;6.90;99866.00;;;;10539973;28;20196;-75
2021/05/04 20:47:07;;;;;;;3.73;1.57;;;;;6.80;99859.00;;;;10499382;28;20220;-76
2021/05/04 20:52:08;;;;;;;4.57;1.37;;;;;6.70;99889.00;;;;10522910;28;20207;-76
2021/05/04 20:57:09;;;;;;;3.10;1.87;;;;;6.30;99924.00;;;;10468281;28;20217;-76
2021/05/04 21:02:12;;;;;;;2.57;1.60;;;;;6.10;99931.00;;;;10545838;28;20275;-76
2021/05/04 21:07:14;;;;;;;2.93;1.50;;;;;5.90;99919.00;;;;10537443;28;20259;-77
2021/05/04 21:12:23;;;;;;;2.97;1.50;;;;;5.70;99916.00;;;;10524469;28;20251;-76
2021/05/04 21:17:25;;;;;;;2.43;1.40;;;;;5.70;99921.00;;;;10502338;28;20204;-76
2021/05/04 21:27:46;;;;;;;4.03;1.60;;;;;5.70;99910.00;;;;10546140;28;20261;-76
2021/05/04 21:32:48;;;;;;;1.70;1.20;;;;;5.70;99898.00;;;;10488603;28;20188;-76
2021/05/04 21:37:49;;;;;;;2.37;1.40;;;;;5.80;99888.00;;;;10524056;28;20196;-76
2021/05/04 21:42:51;;;;;;;7.77;1.90;;;;;5.80;99890.00;;;;10489238;28;20705;-76
2021/05/04 21:47:54;;;;;;;3.07;1.90;;;;;5.90;99886.00;;;;10498584;28;20672;-75
2021/05/04 21:52:56;;;;;;;2.83;1.80;;;;;5.90;99861.00;;;;10504897;28;20897;-76
2021/05/04 21:58:06;;;;;;;5.30;2.43;;;;;5.90;99838.00;;;;10506018;28;20521;-76
2021/05/04 22:03:07;;;;;;;5.30;2.57;;;;;5.90;99840.00;;;;10507136;28;20218;-76
2021/05/04 22:08:10;;;;;;;2.83;2.20;;;;;5.90;99837.00;;;;10506075;28;20269;-76
2021/05/04 22:13:16;;;;;;;4.77;2.10;;;;;5.90;99830.00;;;;10541619;28;20265;-76
2021/05/04 22:39:29;;;;;;;4.13;3.10;;;;;6.00;99829.00;;;;10466066;28;20194;-76
2021/05/04 23:01:06;;;;;;;4.37;3.00;;;;;5.60;99828.00;;;;10525877;28;20317;-76
2021/05/04 23:16:36;;;;;;;4.83;2.77;;;;;5.40;99800.00;;;;10525970;28;20212;-75
2021/05/04 23:21:54;;;;;;;4.20;3.50;;;;;5.40;99806.00;;;;10507694;28;20193;-75
2021/05/04 23:26:56;;;;;;;4.93;3.00;;;;;5.40;99811.00;;;;10519827;28;20196;-75
2021/05/04 23:31:57;;;;;;;8.37;3.10;;;;;5.50;99811.00;;;;10557341;28;20286;-75
2021/05/04 23:37:00;;;;;;;6.53;3.73;;;;;5.60;99807.00;;;;10524573;28;20212;-75
2021/05/04 23:42:02;;;;;;;5.87;3.40;;;;;5.60;99800.00;;;;10536431;28;20860;-75
2021/05/04 23:47:03;;;;;;;5.57;3.10;;;;;5.70;99806.00;;;;10519402;28;20780;-76
2021/05/04 23:52:05;;;;;;;7.80;3.53;;;;;5.60;99803.00;;;;10528837;28;20611;-76
2021/05/04 23:57:09;;;;;;;4.80;2.67;;;;;5.50;99803.00;;;;10505833;28;20201;-76
